Bronson, Ohio
Current Conditions -  °F | °C
As of 5:53 PM on Tuesday 25 Nov 2014 (Local Time) from KLPR Reporting Station
Overcast Overcast  
Wind Chill: 24°   Ceiling: 1900
Heat Index: 32°   Visibility: 10mi
Dew Point: 26°   Wind: 9mph
Humidity: 79%   Direction: 280°W
Pressure: 30.15"   Gusts: NA
Location:  41.2186°N, 82.5851°W
Report Text: KLPR 252253Z AUTO 28008KT 10SM OVC019 00/M03 A3015 RMK AO2 SLP217 T00001033 TSNO
Loading
Personal Weather Stations






























Interactive Weather Map New forecast layout! Learn more

10-Day Weather Forecast

Advertisements
Track Severe Weather on mobile